createdAt,value
2018-05-15T00:01:43.259Z,98585.30
2018-05-15T00:04:12.693Z,98585.48
2018-05-15T00:06:42.057Z,98587.56
2018-05-15T00:09:11.399Z,98586.42
2018-05-15T00:11:40.772Z,98587.36
2018-05-15T00:14:10.799Z,98593.86
2018-05-15T00:16:40.358Z,98595.42
2018-05-15T00:19:09.683Z,98599.77
2018-05-15T00:21:39.011Z,98600.08
2018-05-15T00:24:08.267Z,98607.33
2018-05-15T00:26:37.457Z,98612.54
2018-05-15T00:29:06.535Z,98616.69
2018-05-15T00:31:35.543Z,98618.96
2018-05-15T00:34:04.511Z,98623.39
2018-05-15T00:36:33.406Z,98628.02
2018-05-15T00:39:03.746Z,98633.69
2018-05-15T00:41:33.123Z,98638.59
2018-05-15T00:44:02.180Z,98636.78
2018-05-15T00:46:31.505Z,98643.34
2018-05-15T00:49:00.182Z,98636.19
2018-05-15T00:51:29.089Z,98639.38
2018-05-15T00:53:58.108Z,98649.02
2018-05-15T00:56:27.667Z,98650.78
2018-05-15T00:58:56.769Z,98660.83
2018-05-15T01:01:26.062Z,98660.23
2018-05-15T01:03:55.668Z,98663.50
2018-05-15T01:06:25.508Z,98667.39
2018-05-15T01:08:54.899Z,98669.70
2018-05-15T01:11:24.268Z,98673.52
2018-05-15T01:13:53.952Z,98679.61
2018-05-15T01:16:23.185Z,98682.91
2018-05-15T01:18:52.512Z,98689.50
2018-05-15T01:21:21.738Z,98693.11
2018-05-15T01:23:51.383Z,98705.33
2018-05-15T01:26:20.872Z,98708.18
2018-05-15T01:28:49.311Z,98709.89
2018-05-15T01:31:18.680Z,98717.91
2018-05-15T01:33:48.567Z,98725.85
2018-05-15T01:36:17.858Z,98725.72
2018-05-15T01:38:47.088Z,98737.58
2018-05-15T01:41:17.470Z,98745.88
2018-05-15T01:43:47.343Z,98754.56
2018-05-15T01:46:18.247Z,98749.38
2018-05-15T01:48:47.718Z,98747.36
2018-05-15T01:51:17.161Z,98746.52
2018-05-15T01:53:46.689Z,98752.38
2018-05-15T01:56:16.180Z,98752.20
2018-05-15T01:58:45.663Z,98751.05
2018-05-15T02:01:15.489Z,98745.87
2018-05-15T02:03:44.618Z,98731.55
2018-05-15T02:06:14.279Z,98713.78
2018-05-15T02:08:43.442Z,98720.55
2018-05-15T02:11:13.103Z,98723.30
2018-05-15T02:13:42.894Z,98734.16
2018-05-15T02:16:12.863Z,98733.83
2018-05-15T02:18:41.825Z,98738.45
2018-05-15T02:21:11.483Z,98744.22
2018-05-15T02:23:41.267Z,98738.55
2018-05-15T02:26:11.321Z,98736.80
2018-05-15T02:28:40.636Z,98733.25
2018-05-15T02:31:09.649Z,98730.25
2018-05-15T02:33:39.371Z,98743.80
2018-05-15T02:36:08.548Z,98745.70
2018-05-15T02:38:38.247Z,98754.42
2018-05-15T02:41:07.189Z,98751.67
2018-05-15T02:43:37.158Z,98760.62
2018-05-15T02:46:05.972Z,98756.44
2018-05-15T02:48:34.756Z,98751.67
2018-05-15T02:51:04.499Z,98761.91
2018-05-15T02:53:33.430Z,98759.13
2018-05-15T02:56:02.761Z,98767.92
2018-05-15T02:58:32.539Z,98774.52
2018-05-15T03:01:01.167Z,98774.28
2018-05-15T03:03:30.670Z,98763.51
2018-05-15T03:05:59.959Z,98757.98
2018-05-15T03:08:29.138Z,98762.41
2018-05-15T03:10:59.265Z,98759.45
2018-05-15T03:13:28.299Z,98766.34
2018-05-15T03:15:57.098Z,98761.84
2018-05-15T03:18:26.829Z,98765.82
2018-05-15T03:20:56.408Z,98766.23
2018-05-15T03:23:26.046Z,98762.91
2018-05-15T03:25:55.119Z,98754.80
2018-05-15T03:28:24.208Z,98751.03
2018-05-15T03:30:53.545Z,98747.58
2018-05-15T03:33:22.306Z,98742.30
2018-05-15T03:35:52.140Z,98747.64
2018-05-15T03:38:21.118Z,98738.64
2018-05-15T03:40:51.112Z,98738.55
2018-05-15T03:43:20.132Z,98738.80
2018-05-15T03:45:50.018Z,98746.88
2018-05-15T03:48:19.766Z,98742.01
2018-05-15T03:50:48.658Z,98743.63
2018-05-15T03:53:18.791Z,98743.67
2018-05-15T03:55:48.460Z,98747.59
2018-05-15T03:58:17.961Z,98741.13
2018-05-15T04:00:58.909Z,98743.79
2018-05-15T04:03:39.684Z,98742.70
2018-05-15T04:06:20.030Z,98754.06
2018-05-15T04:08:50.104Z,98744.11
2018-05-15T04:11:18.922Z,98746.80
2018-05-15T04:13:48.549Z,98741.59
2018-05-15T04:16:18.181Z,98746.90
2018-05-15T04:18:46.964Z,98737.41
2018-05-15T04:21:16.157Z,98737.67
2018-05-15T04:23:45.557Z,98726.19
2018-05-15T04:26:14.760Z,98724.72
2018-05-15T04:28:44.006Z,98723.65
2018-05-15T04:31:13.567Z,98725.50
2018-05-15T04:33:43.781Z,98725.09
2018-05-15T04:36:12.546Z,98721.48
2018-05-15T04:38:43.303Z,98727.08
2018-05-15T04:41:11.968Z,98721.23
2018-05-15T04:43:41.324Z,98727.27
2018-05-15T04:46:12.764Z,98719.38
2018-05-15T04:48:41.627Z,98713.92
2018-05-15T04:51:10.129Z,98708.59
2018-05-15T04:53:38.795Z,98712.27
2018-05-15T04:56:07.879Z,98710.13
2018-05-15T04:58:37.820Z,98711.38
2018-05-15T05:01:07.477Z,98712.47
2018-05-15T05:03:36.582Z,98717.30
2018-05-15T05:06:06.583Z,98716.25
2018-05-15T05:08:36.002Z,98709.55
2018-05-15T05:11:05.817Z,98709.83
2018-05-15T05:13:35.289Z,98697.24
2018-05-15T05:16:04.262Z,98698.78
2018-05-15T05:18:33.951Z,98690.01
2018-05-15T05:21:03.237Z,98692.08
2018-05-15T05:23:32.763Z,98681.89
2018-05-15T05:26:02.104Z,98676.25
2018-05-15T05:28:31.686Z,98673.20
2018-05-15T05:31:01.792Z,98667.11
2018-05-15T05:33:31.016Z,98672.19
2018-05-15T05:35:59.846Z,98663.70
2018-05-15T05:38:29.012Z,98669.42
2018-05-15T05:40:58.725Z,98670.94
2018-05-15T05:43:27.922Z,98664.94
2018-05-15T05:45:56.926Z,98657.55
2018-05-15T05:48:26.583Z,98648.22
2018-05-15T05:50:55.707Z,98647.16
2018-05-15T05:53:25.741Z,98650.20
2018-05-15T05:55:55.234Z,98644.36
2018-05-15T05:58:24.390Z,98633.88
2018-05-15T06:00:53.328Z,98639.13
2018-05-15T06:03:22.593Z,98627.11
2018-05-15T06:05:51.730Z,98630.17
2018-05-15T06:08:24.109Z,98624.53
2018-05-15T06:10:53.084Z,98628.67
2018-05-15T06:13:23.220Z,98621.37
2018-05-15T06:15:52.722Z,98627.75
2018-05-15T06:18:22.580Z,98619.20
2018-05-15T06:20:52.003Z,98611.48
2018-05-15T06:23:22.016Z,98602.94
2018-05-15T06:25:51.244Z,98598.50
2018-05-15T06:28:20.783Z,98594.90
2018-05-15T06:30:50.761Z,98591.39
2018-05-15T06:33:20.245Z,98588.10
2018-05-15T06:35:50.015Z,98584.50
2018-05-15T06:38:19.504Z,98582.94
2018-05-15T06:40:49.392Z,98586.95
2018-05-15T06:43:18.657Z,98580.48
2018-05-15T06:45:47.327Z,98580.77
2018-05-15T06:48:17.186Z,98575.85
2018-05-15T06:50:46.578Z,98571.09
2018-05-15T06:53:15.664Z,98570.61
2018-05-15T06:55:44.681Z,98574.95
2018-05-15T06:58:13.371Z,98570.73
2018-05-15T07:00:43.205Z,98574.37
2018-05-15T07:03:12.543Z,98567.98
2018-05-15T07:05:42.163Z,98566.42
2018-05-15T07:08:12.109Z,98563.55
2018-05-15T07:10:41.826Z,98561.98
2018-05-15T07:13:11.921Z,98549.64
2018-05-15T07:15:41.418Z,98552.41
2018-05-15T07:18:10.830Z,98555.70
2018-05-15T07:20:40.580Z,98549.83
2018-05-15T07:23:10.093Z,98545.48
2018-05-15T07:25:39.634Z,98550.45
2018-05-15T07:28:08.616Z,98544.07
2018-05-15T07:30:37.541Z,98534.59
2018-05-15T07:33:07.520Z,98535.01
2018-05-15T07:35:36.883Z,98524.18
2018-05-15T07:38:05.609Z,98518.52
2018-05-15T07:40:34.457Z,98514.75
2018-05-15T07:43:03.989Z,98509.80
2018-05-15T07:45:33.913Z,98502.99
2018-05-15T07:48:03.334Z,98498.27
2018-05-15T07:50:32.476Z,98499.19
2018-05-15T07:53:02.741Z,98498.67
2018-05-15T07:55:32.376Z,98496.92
2018-05-15T07:58:02.263Z,98495.27
2018-05-15T08:00:32.380Z,98490.53
2018-05-15T08:03:01.699Z,98475.88
2018-05-15T08:05:31.389Z,98470.73
2018-05-15T08:08:00.848Z,98466.09
2018-05-15T08:10:30.377Z,98466.61
2018-05-15T08:13:00.293Z,98454.94
2018-05-15T08:15:29.380Z,98451.98
2018-05-15T08:17:59.176Z,98449.48
2018-05-15T08:20:30.457Z,98445.98
2018-05-15T08:22:59.175Z,98438.16
2018-05-15T08:25:27.700Z,98433.39
2018-05-15T08:27:57.629Z,98433.50
2018-05-15T08:30:27.613Z,98432.79
2018-05-15T08:32:57.523Z,98428.56
2018-05-15T08:35:26.268Z,98431.63
2018-05-15T08:37:54.945Z,98422.26
2018-05-15T08:40:23.897Z,98418.23
2018-05-15T08:42:53.453Z,98415.66
2018-05-15T08:45:22.288Z,98408.33
2018-05-15T08:47:51.951Z,98406.38
2018-05-15T08:50:21.030Z,98409.99
2018-05-15T08:52:50.517Z,98407.81
2018-05-15T08:55:22.115Z,98394.31
2018-05-15T08:57:51.126Z,98402.02
2018-05-15T09:00:21.160Z,98394.50
2018-05-15T09:02:50.982Z,98386.58
2018-05-15T09:05:20.514Z,98379.74
2018-05-15T09:07:50.452Z,98381.07
2018-05-15T09:10:19.861Z,98382.72
2018-05-15T09:12:48.903Z,98381.73
2018-05-15T09:15:18.364Z,98377.68
2018-05-15T09:17:48.356Z,98380.77
2018-05-15T09:20:18.457Z,98371.08
2018-05-15T09:22:47.679Z,98365.52
2018-05-15T09:25:16.958Z,98359.42
2018-05-15T09:27:47.033Z,98358.67
2018-05-15T09:30:16.323Z,98350.52
2018-05-15T09:32:46.034Z,98348.67
2018-05-15T09:35:15.346Z,98341.65
2018-05-15T09:37:45.790Z,98335.45
2018-05-15T09:40:15.139Z,98332.87
2018-05-15T09:42:44.816Z,98331.95
2018-05-15T09:45:13.859Z,98326.69
2018-05-15T09:47:42.992Z,98316.06
2018-05-15T09:50:12.419Z,98310.90
2018-05-15T09:52:41.541Z,98306.25
2018-05-15T09:55:12.319Z,98304.98
2018-05-15T09:57:42.856Z,98298.69
2018-05-15T10:00:12.516Z,98297.66
2018-05-15T10:02:41.901Z,98289.47
2018-05-15T10:05:11.049Z,98294.63
2018-05-15T10:07:40.756Z,98290.47
2018-05-15T10:10:09.991Z,98281.91
2018-05-15T10:12:39.186Z,98284.28
2018-05-15T10:15:08.006Z,98275.30
2018-05-15T10:17:37.334Z,98262.36
2018-05-15T10:20:07.271Z,98258.64
2018-05-15T10:22:37.339Z,98256.81
2018-05-15T10:25:06.615Z,98256.61
2018-05-15T10:27:35.621Z,98251.41
2018-05-15T10:30:05.492Z,98251.14
2018-05-15T10:32:34.538Z,98248.55
2018-05-15T10:35:05.868Z,98238.09
2018-05-15T10:37:35.797Z,98236.89
2018-05-15T10:40:06.307Z,98237.52
2018-05-15T10:42:36.495Z,98231.00
2018-05-15T10:45:07.031Z,98235.00
2018-05-15T10:47:36.612Z,98229.42
2018-05-15T10:50:06.743Z,98224.92
2018-05-15T10:52:37.144Z,98224.08
2018-05-15T10:55:10.302Z,98224.08
2018-05-15T10:57:42.452Z,98223.14
2018-05-15T11:00:14.040Z,98225.44
2018-05-15T11:02:46.400Z,98223.54
2018-05-15T11:05:16.361Z,98224.77
2018-05-15T11:07:46.806Z,98231.38
2018-05-15T11:10:16.892Z,98234.72
2018-05-15T11:12:46.207Z,98233.45
2018-05-15T11:15:15.799Z,98224.77
2018-05-15T11:17:45.146Z,98225.87
2018-05-15T11:20:26.278Z,98224.77
2018-05-15T11:23:07.105Z,98229.09
2018-05-15T11:25:37.366Z,98230.33
2018-05-15T11:28:06.888Z,98230.84
2018-05-15T11:30:36.271Z,98231.95
2018-05-15T11:33:06.596Z,98238.75
2018-05-15T11:35:36.200Z,98236.27
2018-05-15T11:38:05.998Z,98233.17
2018-05-15T11:40:35.715Z,98231.28
2018-05-15T11:43:05.390Z,98236.23
2018-05-15T11:45:35.081Z,98236.69
2018-05-15T11:48:04.703Z,98235.82
2018-05-15T11:50:35.111Z,98240.98
2018-05-15T11:53:04.615Z,98249.34
2018-05-15T11:55:35.295Z,98251.11
2018-05-15T11:58:03.676Z,98243.98
2018-05-15T12:00:33.403Z,98238.60
2018-05-15T12:03:02.651Z,98239.23
2018-05-15T12:05:31.229Z,98234.21
2018-05-15T12:08:01.448Z,98234.48
2018-05-15T12:10:47.985Z,98230.23
2018-05-15T12:13:17.702Z,98232.09
2018-05-15T12:15:47.372Z,98231.31
2018-05-15T12:18:17.253Z,98233.44
2018-05-15T12:20:46.717Z,98228.80
2018-05-15T12:23:15.547Z,98228.80
2018-05-15T12:25:44.865Z,98225.89
2018-05-15T12:28:14.129Z,98224.62
2018-05-15T12:30:42.605Z,98218.11
2018-05-15T12:33:12.269Z,98219.65
2018-05-15T12:35:41.577Z,98210.56
2018-05-15T12:38:10.743Z,98206.53
2018-05-15T12:40:39.955Z,98202.39
2018-05-15T12:43:09.101Z,98203.85
2018-05-15T12:45:38.463Z,98202.03
2018-05-15T12:48:07.307Z,98200.45
2018-05-15T12:50:36.563Z,98205.20
2018-05-15T12:53:06.131Z,98208.70
2018-05-15T12:55:35.727Z,98208.96
2018-05-15T12:58:06.509Z,98212.16
2018-05-15T13:00:36.828Z,98216.30
2018-05-15T13:03:06.019Z,98220.43
2018-05-15T13:05:35.135Z,98225.70
2018-05-15T13:08:04.827Z,98228.47
2018-05-15T13:10:34.146Z,98227.72
2018-05-15T13:13:03.995Z,98239.11
2018-05-15T13:15:33.675Z,98244.48
2018-05-15T13:18:02.571Z,98242.79
2018-05-15T13:20:31.832Z,98252.80
2018-05-15T13:23:01.071Z,98252.39
2018-05-15T13:25:29.720Z,98254.87
2018-05-15T13:27:59.376Z,98257.05
2018-05-15T13:30:29.426Z,98261.48
2018-05-15T13:32:59.328Z,98269.06
2018-05-15T13:35:29.315Z,98274.64
2018-05-15T13:37:58.605Z,98264.94
2018-05-15T13:40:27.361Z,98269.79
2018-05-15T13:42:56.846Z,98271.86
2018-05-15T13:45:26.142Z,98279.30
2018-05-15T13:47:56.081Z,98282.22
2018-05-15T13:50:25.964Z,98284.19
2018-05-15T13:52:54.908Z,98274.38
2018-05-15T13:55:24.626Z,98274.69
2018-05-15T13:57:53.812Z,98285.22
2018-05-15T14:00:24.074Z,98277.27
2018-05-15T14:02:53.356Z,98282.70
2018-05-15T14:05:22.338Z,98287.66
2018-05-15T14:07:50.971Z,98287.14
2018-05-15T14:10:20.952Z,98292.30
2018-05-15T14:12:49.782Z,98293.11
2018-05-15T14:15:19.531Z,98289.29
2018-05-15T14:17:48.076Z,98294.55
2018-05-15T14:20:17.609Z,98305.98
2018-05-15T14:22:47.188Z,98302.95
2018-05-15T14:25:16.320Z,98310.80
2018-05-15T14:27:45.538Z,98305.84
2018-05-15T14:30:14.845Z,98309.76
2018-05-15T14:32:44.155Z,98313.38
2018-05-15T14:35:13.635Z,98318.75
2018-05-15T14:37:42.945Z,98314.72
2018-05-15T14:40:12.100Z,98315.13
2018-05-15T14:42:52.112Z,98318.64
2018-05-15T14:45:21.212Z,98313.38
2018-05-15T14:47:51.108Z,98314.30
2018-05-15T14:50:20.574Z,98306.66
2018-05-15T14:52:50.520Z,98314.20
2018-05-15T14:55:20.066Z,98322.98
2018-05-15T14:57:49.617Z,98321.94
2018-05-15T15:00:19.379Z,98324.52
2018-05-15T15:02:49.021Z,98329.34
2018-05-15T15:05:18.686Z,98329.34
2018-05-15T15:07:48.125Z,98328.66
2018-05-15T15:10:17.019Z,98332.27
2018-05-15T15:12:46.119Z,98330.52
2018-05-15T15:15:15.389Z,98333.30
2018-05-15T15:17:44.536Z,98328.97
2018-05-15T15:20:13.685Z,98327.11
2018-05-15T15:22:43.605Z,98323.60
2018-05-15T15:25:13.100Z,98332.69
2018-05-15T15:27:42.770Z,98339.09
2018-05-15T15:30:12.217Z,98331.48
2018-05-15T15:32:41.251Z,98334.38
2018-05-15T15:35:10.116Z,98333.97
2018-05-15T15:37:39.770Z,98335.72
2018-05-15T15:40:09.230Z,98339.09
2018-05-15T15:42:38.142Z,98335.69
2018-05-15T15:45:07.163Z,98347.04
2018-05-15T15:47:36.864Z,98350.03
2018-05-15T15:50:05.992Z,98347.21
2018-05-15T15:52:34.698Z,98340.13
2018-05-15T15:55:04.177Z,98335.03
2018-05-15T15:57:33.943Z,98339.54
2018-05-15T16:00:03.961Z,98342.23
2018-05-15T16:02:33.263Z,98346.66
2018-05-15T16:05:02.460Z,98346.87
2018-05-15T16:07:32.659Z,98345.25
2018-05-15T16:10:02.488Z,98347.11
2018-05-15T16:12:33.339Z,98347.42
2018-05-15T16:15:02.900Z,98347.02
2018-05-15T16:17:43.590Z,98348.66
2018-05-15T16:20:12.721Z,98355.79
2018-05-15T16:22:42.349Z,98371.14
2018-05-15T16:25:12.129Z,98366.59
2018-05-15T16:27:41.878Z,98371.45
2018-05-15T16:30:11.546Z,98365.66
2018-05-15T16:32:41.146Z,98373.10
2018-05-15T16:35:10.730Z,98374.86
2018-05-15T16:37:39.893Z,98366.91
2018-05-15T16:40:09.877Z,98369.28
2018-05-15T16:42:39.365Z,98376.75
2018-05-15T16:45:08.531Z,98377.16
2018-05-15T16:47:37.745Z,98380.88
2018-05-15T16:50:07.420Z,98382.81
2018-05-15T16:52:37.142Z,98386.77
2018-05-15T16:55:06.356Z,98381.59
2018-05-15T16:57:36.371Z,98380.77
2018-05-15T17:00:05.984Z,98378.91
2018-05-15T17:02:35.749Z,98388.31
2018-05-15T17:05:05.503Z,98389.03
2018-05-15T17:07:34.517Z,98391.28
2018-05-15T17:10:03.972Z,98388.10
2018-05-15T17:12:33.997Z,98388.28
2018-05-15T17:15:03.166Z,98392.86
2018-05-15T17:17:33.330Z,98388.31
2018-05-15T17:20:02.793Z,98384.87
2018-05-15T17:22:32.215Z,98379.33
2018-05-15T17:25:01.856Z,98390.34
2018-05-15T17:27:31.437Z,98392.62
2018-05-15T17:30:00.955Z,98389.52
2018-05-15T17:32:31.191Z,98397.58
2018-05-15T17:35:00.758Z,98392.83
2018-05-15T17:37:30.453Z,98390.55
2018-05-15T17:39:59.517Z,98386.32
2018-05-15T17:42:28.686Z,98388.48
2018-05-15T17:44:58.151Z,98391.52
2018-05-15T17:47:27.376Z,98397.40
2018-05-15T17:49:57.206Z,98395.81
2018-05-15T17:52:26.704Z,98401.19
2018-05-15T17:54:56.345Z,98396.16
2018-05-15T17:57:26.006Z,98402.05
2018-05-15T17:59:56.237Z,98406.48
2018-05-15T18:02:25.644Z,98406.79
2018-05-15T18:04:55.490Z,98410.84
2018-05-15T18:07:24.927Z,98406.09
2018-05-15T18:09:55.111Z,98410.30
2018-05-15T18:12:25.204Z,98420.11
2018-05-15T18:14:54.874Z,98411.85
2018-05-15T18:17:24.428Z,98415.98
2018-05-15T18:19:54.123Z,98412.98
2018-05-15T18:22:23.463Z,98413.72
2018-05-15T18:24:53.251Z,98410.61
2018-05-15T18:27:22.777Z,98412.99
2018-05-15T18:29:52.048Z,98407.31
2018-05-15T18:32:21.159Z,98411.55
2018-05-15T18:34:50.454Z,98408.03
2018-05-15T18:37:20.147Z,98401.33
2018-05-15T18:39:49.418Z,98401.02
2018-05-15T18:42:18.419Z,98395.54
2018-05-15T18:44:48.017Z,98393.89
2018-05-15T18:47:17.581Z,98389.55
2018-05-15T18:49:47.357Z,98384.39
2018-05-15T18:52:16.959Z,98383.45
2018-05-15T18:54:47.243Z,98379.44
2018-05-15T18:57:17.758Z,98376.55
2018-05-15T18:59:47.365Z,98377.27
2018-05-15T19:02:16.547Z,98375.30
2018-05-15T19:04:46.201Z,98370.14
2018-05-15T19:07:15.442Z,98367.55
2018-05-15T19:09:45.227Z,98360.98
2018-05-15T19:12:14.046Z,98371.41
2018-05-15T19:14:43.140Z,98371.71
2018-05-15T19:17:12.404Z,98370.81
2018-05-15T19:19:42.640Z,98364.41
2018-05-15T19:22:11.869Z,98358.11
2018-05-15T19:24:41.085Z,98356.56
2018-05-15T19:27:10.532Z,98349.24
2018-05-15T19:29:40.193Z,98348.48
2018-05-15T19:35:09.800Z,98347.45
2018-05-15T19:37:38.591Z,98342.60
2018-05-15T19:40:13.506Z,98339.09
2018-05-15T19:42:43.204Z,98339.81
2018-05-15T19:45:12.908Z,98336.20
2018-05-15T19:47:41.631Z,98338.19
2018-05-15T19:50:10.677Z,98333.59
2018-05-15T19:52:40.780Z,98335.95
2018-05-15T19:55:09.969Z,98337.19
2018-05-15T19:57:39.962Z,98343.35
2018-05-15T20:00:09.490Z,98339.98
2018-05-15T20:02:38.487Z,98338.02
2018-05-15T20:05:07.990Z,98335.95
2018-05-15T20:07:36.831Z,98334.92
2018-05-15T20:10:06.342Z,98329.45
2018-05-15T20:12:35.659Z,98336.77
2018-05-15T20:15:05.108Z,98333.89
2018-05-15T20:17:34.918Z,98341.19
2018-05-15T20:20:04.681Z,98345.63
2018-05-15T20:22:34.424Z,98340.16
2018-05-15T20:25:03.530Z,98331.92
2018-05-15T20:27:33.005Z,98321.16
2018-05-15T20:30:02.356Z,98312.39
2018-05-15T20:32:31.441Z,98310.56
2018-05-15T20:35:00.396Z,98299.20
2018-05-15T20:37:29.965Z,98296.42
2018-05-15T20:39:59.694Z,98287.55
2018-05-15T20:42:28.978Z,98283.97
2018-05-15T20:44:58.121Z,98274.27
2018-05-15T20:47:27.716Z,98274.67
2018-05-15T20:49:57.187Z,98267.87
2018-05-15T20:52:26.666Z,98260.02
2018-05-15T20:54:56.362Z,98246.71
2018-05-15T20:57:25.886Z,98243.92
2018-05-15T20:59:56.106Z,98239.28
2018-05-15T21:02:25.254Z,98234.43
2018-05-15T21:04:54.219Z,98229.52
2018-05-15T21:07:23.331Z,98221.05
2018-05-15T21:09:52.007Z,98208.63
2018-05-15T21:12:21.295Z,98209.19
2018-05-15T21:14:50.267Z,98205.64
2018-05-15T21:17:19.834Z,98202.03
2018-05-15T21:19:49.181Z,98198.42
2018-05-15T21:22:18.053Z,98201.83
2018-05-15T21:24:46.655Z,98195.63
2018-05-15T21:27:15.895Z,98189.55
2018-05-15T21:29:45.121Z,98186.39
2018-05-15T21:32:14.357Z,98186.80
2018-05-15T21:34:44.008Z,98185.05
2018-05-15T21:37:12.819Z,98198.80
2018-05-15T21:39:41.615Z,98202.59
2018-05-15T21:42:10.429Z,98214.86
2018-05-15T21:44:40.016Z,98225.80
2018-05-15T21:47:09.874Z,98237.66
2018-05-15T21:49:39.676Z,98250.36
2018-05-15T21:52:09.509Z,98268.20
2018-05-15T21:54:39.158Z,98278.02
2018-05-15T21:57:08.947Z,98287.40
2018-05-15T21:59:38.092Z,98301.66
2018-05-15T22:02:08.004Z,98303.41
2018-05-15T22:04:36.987Z,98302.37
2018-05-15T22:07:05.817Z,98306.99
2018-05-15T22:09:35.551Z,98308.68
2018-05-15T22:12:16.459Z,98302.97
2018-05-15T22:14:58.259Z,98301.73
2018-05-15T22:17:38.470Z,98298.06
2018-05-15T22:20:19.176Z,98306.80
2018-05-15T22:22:47.553Z,98312.89
2018-05-15T22:25:16.356Z,98317.13
2018-05-15T22:27:45.996Z,98320.35
2018-05-15T22:30:15.464Z,98320.45
2018-05-15T22:32:44.374Z,98318.48
2018-05-15T22:35:14.239Z,98319.00
2018-05-15T22:37:43.317Z,98318.08
2018-05-15T22:40:13.026Z,98308.38
2018-05-15T22:42:42.242Z,98307.87
2018-05-15T22:45:11.357Z,98309.10
2018-05-15T22:47:46.247Z,98297.86
2018-05-15T22:50:15.055Z,98296.22
2018-05-15T22:52:44.351Z,98287.34
2018-05-15T22:55:13.793Z,98274.65
2018-05-15T22:57:43.565Z,98269.20
2018-05-15T23:00:12.952Z,98269.72
2018-05-15T23:02:42.812Z,98262.19
2018-05-15T23:05:12.926Z,98253.32
2018-05-15T23:07:42.439Z,98246.92
2018-05-15T23:10:12.071Z,98260.53
2018-05-15T23:12:41.139Z,98263.84
2018-05-15T23:15:10.137Z,98268.72
2018-05-15T23:17:39.549Z,98274.28
2018-05-15T23:20:08.320Z,98298.50
2018-05-15T23:22:43.170Z,98315.60
2018-05-15T23:25:12.318Z,98299.19
2018-05-15T23:27:41.372Z,98281.88
2018-05-15T23:30:10.884Z,98274.88
2018-05-15T23:32:41.047Z,98295.61
2018-05-15T23:35:10.637Z,98319.82
2018-05-15T23:37:40.406Z,98353.76
2018-05-15T23:40:09.062Z,98389.25
2018-05-15T23:42:38.905Z,98402.56
2018-05-15T23:45:08.460Z,98411.24
2018-05-15T23:47:38.257Z,98412.66
2018-05-15T23:50:08.065Z,98437.73
2018-05-15T23:52:37.223Z,98443.30
2018-05-15T23:55:21.217Z,98456.28
2018-05-15T23:57:51.078Z,98482.73
